createdAt,value
2022-11-30T00:00:29.443Z,43.61
2022-11-30T00:03:00.870Z,43.52
2022-11-30T00:05:33.931Z,43.80
2022-11-30T00:08:05.520Z,43.80
2022-11-30T00:10:36.250Z,43.74
2022-11-30T00:13:06.780Z,43.89
2022-11-30T00:15:38.669Z,43.71
2022-11-30T00:18:08.841Z,43.71
2022-11-30T00:20:41.073Z,43.79
2022-11-30T00:23:11.473Z,43.80
2022-11-30T00:25:42.282Z,43.93
2022-11-30T00:28:12.736Z,43.92
2022-11-30T00:30:43.085Z,44.02
2022-11-30T00:33:13.482Z,44.00
2022-11-30T00:35:46.550Z,43.71
2022-11-30T00:38:17.168Z,43.87
2022-11-30T00:40:47.633Z,43.66
2022-11-30T00:43:17.664Z,43.84
2022-11-30T00:45:48.301Z,44.02
2022-11-30T00:48:18.909Z,44.07
2022-11-30T00:50:51.551Z,44.14
2022-11-30T00:53:23.392Z,43.98
2022-11-30T00:55:53.754Z,44.01
2022-11-30T00:58:23.565Z,44.07
2022-11-30T01:00:54.328Z,43.82
2022-11-30T01:03:24.395Z,44.26
2022-11-30T01:05:56.882Z,44.08
2022-11-30T01:08:27.089Z,43.72
2022-11-30T01:10:58.262Z,44.10
2022-11-30T01:13:29.221Z,43.88
2022-11-30T01:16:00.274Z,44.10
2022-11-30T01:18:30.377Z,44.43
2022-11-30T01:21:02.983Z,44.16
2022-11-30T01:23:33.438Z,44.26
2022-11-30T01:26:03.573Z,44.42
2022-11-30T01:28:34.497Z,43.78
2022-11-30T01:31:07.920Z,44.32
2022-11-30T01:33:39.141Z,44.08
2022-11-30T01:36:16.605Z,44.29
2022-11-30T01:38:49.903Z,44.21
2022-11-30T01:41:24.678Z,44.28
2022-11-30T01:43:59.094Z,44.31
2022-11-30T01:46:36.900Z,44.28
2022-11-30T01:49:18.576Z,44.31
2022-11-30T01:52:01.010Z,44.26
2022-11-30T01:54:38.872Z,44.29
2022-11-30T01:57:30.713Z,44.01
2022-11-30T02:00:05.334Z,44.39
2022-11-30T02:02:46.548Z,44.24
2022-11-30T02:05:18.797Z,44.37
2022-11-30T02:07:51.864Z,44.47
2022-11-30T02:10:30.766Z,44.44
2022-11-30T02:13:36.410Z,44.47
2022-11-30T02:16:20.743Z,44.53
2022-11-30T02:19:10.295Z,44.38
2022-11-30T02:21:50.700Z,44.25
2022-11-30T02:24:55.232Z,44.47
2022-11-30T02:27:47.987Z,44.08
2022-11-30T02:30:25.256Z,44.48
2022-11-30T02:33:03.901Z,44.67
2022-11-30T02:35:40.458Z,44.36
2022-11-30T02:38:12.093Z,44.43
2022-11-30T02:40:42.179Z,44.22
2022-11-30T02:43:12.789Z,44.55
2022-11-30T02:45:55.714Z,44.76
2022-11-30T02:48:35.256Z,44.58
2022-11-30T02:51:13.322Z,44.22
2022-11-30T02:53:46.161Z,44.45
2022-11-30T02:56:17.239Z,44.28
2022-11-30T02:58:48.034Z,44.30
2022-11-30T03:01:20.642Z,44.54
2022-11-30T03:03:51.394Z,44.31
2022-11-30T03:06:21.963Z,44.61
2022-11-30T03:08:52.498Z,44.29
2022-11-30T03:11:23.231Z,44.51
2022-11-30T03:13:53.957Z,44.41
2022-11-30T03:16:26.409Z,44.32
2022-11-30T03:18:57.453Z,44.93
2022-11-30T03:21:28.330Z,44.86
2022-11-30T03:23:58.226Z,44.36
2022-11-30T03:26:28.809Z,44.76
2022-11-30T03:28:58.931Z,44.79
2022-11-30T03:31:30.756Z,44.77
2022-11-30T03:34:01.563Z,44.54
2022-11-30T03:36:31.567Z,44.96
2022-11-30T03:39:12.318Z,44.88
2022-11-30T03:41:42.616Z,44.78
2022-11-30T03:44:12.243Z,44.98
2022-11-30T03:46:44.901Z,45.07
2022-11-30T03:49:15.674Z,44.70
2022-11-30T03:51:46.429Z,44.89
2022-11-30T03:54:17.119Z,44.51
2022-11-30T03:56:47.601Z,45.05
2022-11-30T03:59:19.921Z,44.87
2022-11-30T04:02:06.783Z,44.93
2022-11-30T04:04:37.597Z,44.74
2022-11-30T04:07:08.212Z,44.86
2022-11-30T04:09:38.908Z,44.60
2022-11-30T04:12:10.293Z,44.90
2022-11-30T04:14:40.946Z,44.63
2022-11-30T04:17:13.652Z,44.91
2022-11-30T04:19:44.230Z,45.02
2022-11-30T04:22:14.777Z,44.69
2022-11-30T04:24:44.684Z,44.81
2022-11-30T04:27:15.342Z,45.03
2022-11-30T04:29:46.215Z,45.02
2022-11-30T04:32:18.832Z,45.03
2022-11-30T04:34:49.663Z,44.87
2022-11-30T04:37:19.840Z,45.17
2022-11-30T04:39:50.537Z,45.28
2022-11-30T04:42:21.431Z,45.32
2022-11-30T04:44:51.905Z,45.37
2022-11-30T04:47:24.136Z,45.03
2022-11-30T04:49:54.262Z,45.26
2022-11-30T04:52:24.848Z,45.39
2022-11-30T04:54:56.654Z,45.43
2022-11-30T04:57:26.938Z,45.47
2022-11-30T04:59:57.041Z,45.48
2022-11-30T05:02:31.880Z,45.72
2022-11-30T05:05:03.128Z,45.67
2022-11-30T05:07:33.777Z,45.79
2022-11-30T05:10:04.498Z,45.44
2022-11-30T05:12:34.961Z,45.77
2022-11-30T05:15:06.293Z,45.70
2022-11-30T05:17:37.939Z,45.41
2022-11-30T05:20:10.581Z,45.65
2022-11-30T05:22:41.154Z,45.43
2022-11-30T05:25:13.011Z,45.68
2022-11-30T05:27:43.053Z,45.62
2022-11-30T05:30:14.514Z,45.48
2022-11-30T05:32:47.172Z,45.52
2022-11-30T05:35:17.910Z,45.53
2022-11-30T05:37:47.997Z,45.92
2022-11-30T05:40:18.868Z,45.50
2022-11-30T05:42:49.406Z,45.98
2022-11-30T05:45:20.249Z,45.97
2022-11-30T05:47:53.226Z,46.01
2022-11-30T05:50:23.661Z,45.88
2022-11-30T05:52:56.735Z,45.89
2022-11-30T05:55:27.011Z,45.90
2022-11-30T05:57:57.755Z,45.87
2022-11-30T06:00:28.575Z,45.93
2022-11-30T06:03:01.893Z,45.82
2022-11-30T06:05:32.796Z,46.08
2022-11-30T06:08:03.732Z,45.96
2022-11-30T06:10:34.641Z,45.84
2022-11-30T06:13:10.708Z,46.22
2022-11-30T06:15:41.624Z,45.91
2022-11-30T06:18:16.458Z,45.97
2022-11-30T06:20:47.344Z,46.08
2022-11-30T06:23:17.218Z,46.11
2022-11-30T06:25:47.307Z,46.14
2022-11-30T06:28:17.218Z,45.90
2022-11-30T06:30:47.696Z,46.13
2022-11-30T06:33:25.553Z,46.11
2022-11-30T06:35:56.083Z,45.96
2022-11-30T06:38:26.617Z,46.04
2022-11-30T06:40:57.406Z,45.99
2022-11-30T06:43:27.304Z,46.26
2022-11-30T06:45:58.128Z,46.19
2022-11-30T06:48:30.778Z,46.31
2022-11-30T06:51:01.321Z,46.25
2022-11-30T06:53:31.668Z,46.10
2022-11-30T06:56:06.859Z,45.98
2022-11-30T06:58:41.082Z,46.14
2022-11-30T07:01:15.745Z,45.93
2022-11-30T07:03:47.880Z,46.23
2022-11-30T07:06:19.147Z,46.02
2022-11-30T07:08:50.341Z,46.04
2022-11-30T07:11:20.828Z,46.18
2022-11-30T07:13:52.589Z,46.38
2022-11-30T07:16:22.672Z,46.82
2022-11-30T07:18:55.308Z,47.02
2022-11-30T07:21:25.034Z,46.82
2022-11-30T07:24:12.904Z,46.47
2022-11-30T07:26:46.294Z,46.56
2022-11-30T07:29:18.305Z,46.05
2022-11-30T07:31:56.058Z,46.00
2022-11-30T07:34:29.754Z,45.84
2022-11-30T07:37:03.220Z,46.09
2022-11-30T07:39:37.199Z,46.47
2022-11-30T07:42:12.959Z,46.68
2022-11-30T07:44:45.776Z,47.02
2022-11-30T07:47:20.468Z,46.89
2022-11-30T07:49:57.177Z,46.54
2022-11-30T07:52:31.029Z,46.33
2022-11-30T07:55:04.272Z,46.11
2022-11-30T07:57:36.944Z,45.86
2022-11-30T08:00:12.209Z,45.86
2022-11-30T08:02:43.373Z,45.70
2022-11-30T08:05:18.549Z,45.44
2022-11-30T08:07:55.442Z,45.23
2022-11-30T08:10:30.190Z,45.45
2022-11-30T08:13:02.951Z,45.34
2022-11-30T08:15:34.685Z,45.30
2022-11-30T08:18:08.411Z,45.26
2022-11-30T08:20:49.685Z,45.24
2022-11-30T08:23:20.492Z,45.29
2022-11-30T08:25:52.619Z,45.24
2022-11-30T08:28:24.043Z,45.23
2022-11-30T08:30:55.766Z,45.30
2022-11-30T08:33:30.624Z,45.17
2022-11-30T08:36:13.902Z,45.23
2022-11-30T08:38:48.294Z,45.19
2022-11-30T08:41:23.811Z,45.46
2022-11-30T08:43:57.055Z,45.09
2022-11-30T08:49:24.788Z,45.12
2022-11-30T08:52:17.440Z,45.35
2022-11-30T08:54:52.972Z,45.27
2022-11-30T08:57:28.960Z,45.24
2022-11-30T09:00:01.165Z,45.22
2022-11-30T09:02:35.384Z,45.08
2022-11-30T09:05:07.334Z,45.15
2022-11-30T09:07:42.388Z,45.22
2022-11-30T09:10:23.490Z,45.17
2022-11-30T09:12:55.083Z,44.95
2022-11-30T09:15:26.829Z,45.16
2022-11-30T09:18:00.859Z,45.15
2022-11-30T09:20:34.347Z,45.57
2022-11-30T09:23:07.639Z,46.05
2022-11-30T09:25:38.767Z,46.21
2022-11-30T09:28:12.257Z,46.46
2022-11-30T09:30:45.746Z,45.89
2022-11-30T09:33:16.452Z,45.64
2022-11-30T09:35:47.125Z,45.47
2022-11-30T09:38:18.925Z,45.12
2022-11-30T09:40:56.551Z,44.72
2022-11-30T09:43:44.719Z,44.76
2022-11-30T09:46:16.388Z,44.69
2022-11-30T09:49:02.744Z,44.58
2022-11-30T09:51:47.989Z,44.01
2022-11-30T09:54:35.738Z,44.22
2022-11-30T09:57:26.558Z,44.29
2022-11-30T10:00:00.891Z,44.05
2022-11-30T10:02:36.522Z,44.07
2022-11-30T10:05:15.590Z,43.76
2022-11-30T10:08:10.731Z,43.69
2022-11-30T10:10:49.013Z,43.80
2022-11-30T10:13:43.160Z,43.86
2022-11-30T10:16:28.303Z,43.71
2022-11-30T10:19:15.783Z,43.32
2022-11-30T10:22:10.957Z,43.54
2022-11-30T10:25:11.453Z,43.44
2022-11-30T10:27:54.361Z,43.53
2022-11-30T10:30:27.137Z,43.55
2022-11-30T10:33:03.126Z,43.55
2022-11-30T10:35:43.036Z,43.42
2022-11-30T10:38:22.460Z,43.71
2022-11-30T10:41:00.610Z,43.47
2022-11-30T10:43:40.278Z,43.41
2022-11-30T10:46:21.435Z,43.82
2022-11-30T10:48:59.955Z,43.65
2022-11-30T10:51:31.088Z,43.46
2022-11-30T10:54:01.938Z,43.63
2022-11-30T10:56:32.264Z,43.53
2022-11-30T10:59:14.399Z,43.43
2022-11-30T11:01:44.998Z,43.53
2022-11-30T11:04:21.174Z,43.51
2022-11-30T11:06:56.116Z,43.64
2022-11-30T11:09:38.009Z,43.67
2022-11-30T11:12:17.531Z,43.73
2022-11-30T11:14:50.228Z,43.54
2022-11-30T11:17:29.540Z,43.53
2022-11-30T11:19:59.938Z,43.64
2022-11-30T11:22:34.528Z,43.51
2022-11-30T11:25:23.525Z,43.63
2022-11-30T11:27:58.160Z,43.50
2022-11-30T11:30:35.680Z,43.55
2022-11-30T11:33:22.338Z,43.65
2022-11-30T11:35:55.239Z,43.61
2022-11-30T11:38:30.161Z,43.94
2022-11-30T11:41:05.503Z,43.95
2022-11-30T11:43:42.846Z,44.02
2022-11-30T11:46:16.828Z,43.97
2022-11-30T11:49:00.188Z,43.93
2022-11-30T11:51:36.341Z,43.91
2022-11-30T11:54:30.435Z,43.90
2022-11-30T11:57:02.375Z,43.91
2022-11-30T11:59:49.996Z,44.18
2022-11-30T12:02:36.364Z,44.15
2022-11-30T12:05:17.294Z,43.99
2022-11-30T12:08:09.101Z,43.89
2022-11-30T12:10:52.578Z,43.89
2022-11-30T12:13:29.671Z,43.89
2022-11-30T12:16:12.710Z,43.97
2022-11-30T12:18:57.603Z,43.73
2022-11-30T12:21:47.592Z,43.92
2022-11-30T12:24:54.511Z,44.00
2022-11-30T12:27:42.982Z,43.92
2022-11-30T12:30:22.289Z,43.93
2022-11-30T12:33:15.304Z,43.88
2022-11-30T12:36:08.575Z,44.11
2022-11-30T12:38:50.808Z,44.00
2022-11-30T12:41:39.251Z,43.77
2022-11-30T12:44:35.596Z,43.77
2022-11-30T12:47:28.000Z,43.79
2022-11-30T12:50:25.920Z,43.95
2022-11-30T12:53:08.856Z,43.63
2022-11-30T12:55:50.816Z,43.85
2022-11-30T12:58:37.437Z,44.07
2022-11-30T13:01:36.404Z,43.85
2022-11-30T13:04:17.253Z,43.90
2022-11-30T13:06:54.122Z,43.74
2022-11-30T13:09:35.772Z,43.54
2022-11-30T13:12:13.807Z,43.83
2022-11-30T13:14:45.755Z,43.61
2022-11-30T13:17:21.429Z,43.83
2022-11-30T13:20:04.675Z,43.78
2022-11-30T13:22:48.466Z,43.85
2022-11-30T13:26:06.147Z,43.76
2022-11-30T13:28:33.998Z,43.94
2022-11-30T13:31:13.341Z,43.87
2022-11-30T13:33:51.869Z,44.04
2022-11-30T13:36:34.181Z,44.06
2022-11-30T13:39:29.329Z,43.98
2022-11-30T13:42:57.394Z,44.09
2022-11-30T13:45:35.137Z,44.25
2022-11-30T13:48:32.673Z,43.93
2022-11-30T13:51:03.521Z,43.81
2022-11-30T13:53:37.845Z,44.02
2022-11-30T13:56:24.727Z,43.92
2022-11-30T13:59:47.366Z,44.21
2022-11-30T14:02:54.795Z,43.92
2022-11-30T14:05:37.304Z,44.01
2022-11-30T14:08:37.969Z,44.10
2022-11-30T14:11:41.370Z,43.99
2022-11-30T14:14:49.923Z,44.21
2022-11-30T14:17:26.116Z,44.33
2022-11-30T14:20:02.746Z,43.94
2022-11-30T14:22:34.189Z,44.05
2022-11-30T14:25:05.478Z,44.29
2022-11-30T14:27:39.300Z,44.26
2022-11-30T14:30:22.252Z,44.37
2022-11-30T14:33:07.006Z,44.24
2022-11-30T14:35:40.591Z,44.25
2022-11-30T14:38:26.321Z,44.33
2022-11-30T14:40:58.341Z,44.19
2022-11-30T14:43:30.267Z,44.27
2022-11-30T14:46:07.283Z,44.28
2022-11-30T14:48:40.762Z,44.30
2022-11-30T14:51:14.349Z,44.37
2022-11-30T14:53:56.240Z,44.33
2022-11-30T14:56:39.712Z,44.31
2022-11-30T14:59:31.529Z,44.38
2022-11-30T15:02:07.088Z,44.43
2022-11-30T15:04:39.826Z,44.41
2022-11-30T15:07:18.362Z,44.42
2022-11-30T15:09:55.748Z,44.40
2022-11-30T15:12:28.110Z,44.33
2022-11-30T15:15:17.120Z,44.33
2022-11-30T15:17:56.577Z,44.28
2022-11-30T15:20:33.038Z,44.27
2022-11-30T15:23:03.919Z,44.33
2022-11-30T15:25:42.420Z,44.22
2022-11-30T15:28:17.703Z,44.35
2022-11-30T15:30:51.406Z,44.40
2022-11-30T15:33:32.187Z,44.40
2022-11-30T15:36:19.201Z,44.38
2022-11-30T15:38:55.116Z,44.39
2022-11-30T15:41:27.959Z,44.27
2022-11-30T15:44:00.098Z,44.35
2022-11-30T15:46:44.271Z,44.37
2022-11-30T15:49:28.275Z,44.32
2022-11-30T15:52:09.598Z,44.17
2022-11-30T15:54:53.150Z,44.66
2022-11-30T15:57:25.292Z,44.34
2022-11-30T16:00:21.683Z,44.32
2022-11-30T16:02:52.531Z,44.59
2022-11-30T16:05:28.764Z,44.60
2022-11-30T16:08:03.853Z,44.73
2022-11-30T16:10:39.612Z,44.58
2022-11-30T16:13:10.761Z,44.64
2022-11-30T16:15:41.124Z,44.55
2022-11-30T16:18:19.419Z,44.61
2022-11-30T16:20:55.163Z,44.36
2022-11-30T16:23:26.357Z,44.49
2022-11-30T16:25:57.329Z,44.57
2022-11-30T16:28:27.923Z,44.78
2022-11-30T16:31:02.239Z,44.75
2022-11-30T16:33:32.224Z,44.58
2022-11-30T16:36:09.988Z,44.55
2022-11-30T16:38:40.027Z,44.61
2022-11-30T16:41:18.898Z,44.69
2022-11-30T16:43:51.482Z,44.57
2022-11-30T16:46:25.455Z,44.73
2022-11-30T16:48:56.318Z,44.68
2022-11-30T16:51:31.932Z,44.66
2022-11-30T16:54:02.436Z,44.69
2022-11-30T16:56:32.478Z,44.79
2022-11-30T16:59:03.099Z,44.71
2022-11-30T17:01:37.329Z,44.87
2022-11-30T17:04:19.957Z,44.79
2022-11-30T17:06:58.766Z,44.74
2022-11-30T17:09:34.849Z,44.87
2022-11-30T17:12:05.435Z,44.73
2022-11-30T17:14:35.833Z,44.80
2022-11-30T17:17:06.293Z,44.83
2022-11-30T17:19:38.192Z,44.94
2022-11-30T17:22:10.454Z,44.96
2022-11-30T17:24:40.840Z,45.01
2022-11-30T17:27:12.358Z,45.01
2022-11-30T17:29:43.651Z,45.00
2022-11-30T17:32:13.961Z,44.84
2022-11-30T17:34:44.865Z,45.02
2022-11-30T17:37:16.985Z,45.10
2022-11-30T17:39:47.460Z,45.06
2022-11-30T17:42:18.541Z,45.08
2022-11-30T17:44:49.784Z,45.13
2022-11-30T17:47:22.571Z,45.05
2022-11-30T17:49:53.511Z,45.13
2022-11-30T17:52:26.009Z,44.97
2022-11-30T17:54:56.539Z,45.23
2022-11-30T17:57:26.113Z,45.01
2022-11-30T17:59:56.528Z,45.13
2022-11-30T18:02:26.636Z,44.97
2022-11-30T18:04:57.452Z,45.29
2022-11-30T18:07:29.617Z,45.19
2022-11-30T18:10:02.132Z,45.05
2022-11-30T18:12:31.797Z,45.06
2022-11-30T18:15:02.342Z,45.20
2022-11-30T18:17:33.635Z,45.14
2022-11-30T18:20:04.384Z,44.98
2022-11-30T18:22:36.493Z,45.17
2022-11-30T18:25:07.818Z,45.26
2022-11-30T18:27:38.604Z,45.27
2022-11-30T18:30:11.084Z,45.27
2022-11-30T18:32:41.928Z,45.02
2022-11-30T18:35:13.411Z,45.00
2022-11-30T18:37:46.039Z,45.06
2022-11-30T18:40:17.165Z,45.31
2022-11-30T18:42:49.892Z,45.04
2022-11-30T18:45:20.652Z,45.18
2022-11-30T18:47:50.591Z,45.38
2022-11-30T18:50:21.549Z,45.21
2022-11-30T18:52:55.275Z,45.22
2022-11-30T18:55:26.868Z,45.23
2022-11-30T18:57:58.308Z,45.21
2022-11-30T19:00:29.466Z,45.22
2022-11-30T19:03:00.421Z,45.08
2022-11-30T19:05:38.656Z,45.28
2022-11-30T19:08:16.208Z,45.52
2022-11-30T19:10:46.863Z,45.01
2022-11-30T19:13:16.924Z,45.27
2022-11-30T19:15:47.332Z,45.29
2022-11-30T19:18:22.894Z,45.57
2022-11-30T19:20:53.787Z,45.34
2022-11-30T19:23:26.480Z,45.19
2022-11-30T19:26:03.280Z,45.29
2022-11-30T19:28:35.722Z,45.26
2022-11-30T19:31:12.558Z,45.52
2022-11-30T19:33:46.627Z,45.36
2022-11-30T19:36:19.863Z,45.19
2022-11-30T19:38:52.447Z,45.25
2022-11-30T19:41:23.803Z,45.35
2022-11-30T19:44:03.093Z,45.31
2022-11-30T19:46:34.996Z,44.87
2022-11-30T19:49:07.707Z,45.19
2022-11-30T19:51:38.785Z,45.62
2022-11-30T19:54:10.671Z,45.38
2022-11-30T19:56:43.040Z,45.33
2022-11-30T19:59:13.640Z,45.40
2022-11-30T20:01:44.504Z,45.44
2022-11-30T20:04:14.696Z,45.43
2022-11-30T20:06:45.706Z,45.30
2022-11-30T20:09:18.366Z,45.38
2022-11-30T20:11:48.966Z,45.44
2022-11-30T20:14:22.832Z,45.44
2022-11-30T20:16:53.547Z,45.35
2022-11-30T20:19:24.952Z,45.47
2022-11-30T20:21:55.642Z,45.39
2022-11-30T20:24:28.018Z,45.43
2022-11-30T20:26:58.876Z,45.49
2022-11-30T20:29:29.356Z,45.76
2022-11-30T20:32:00.434Z,45.47
2022-11-30T20:34:34.643Z,45.51
2022-11-30T20:37:06.597Z,45.48
2022-11-30T20:39:44.054Z,45.70
2022-11-30T20:42:16.205Z,45.75
2022-11-30T20:44:46.453Z,45.53
2022-11-30T20:47:16.880Z,45.70
2022-11-30T20:49:48.477Z,45.60
2022-11-30T20:52:18.674Z,45.65
2022-11-30T20:54:51.313Z,45.63
2022-11-30T20:57:21.301Z,45.63
2022-11-30T20:59:52.073Z,45.63
2022-11-30T21:02:22.325Z,45.63
2022-11-30T21:04:53.097Z,45.68
2022-11-30T21:07:23.200Z,45.54
2022-11-30T21:09:55.997Z,45.67
2022-11-30T21:12:26.049Z,45.85
2022-11-30T21:14:56.413Z,45.62
2022-11-30T21:17:27.081Z,45.27
2022-11-30T21:19:57.810Z,45.92
2022-11-30T21:22:30.331Z,45.72
2022-11-30T21:25:02.729Z,45.68
2022-11-30T21:27:32.748Z,45.70
2022-11-30T21:30:02.761Z,45.71
2022-11-30T21:32:32.744Z,45.85
2022-11-30T21:35:02.999Z,45.94
2022-11-30T21:37:33.288Z,45.85
2022-11-30T21:40:05.538Z,45.61
2022-11-30T21:42:35.456Z,45.68
2022-11-30T21:45:19.498Z,45.95
2022-11-30T21:47:49.686Z,45.99
2022-11-30T21:50:23.094Z,45.73
2022-11-30T21:52:57.091Z,46.06
2022-11-30T21:55:29.237Z,46.04
2022-11-30T21:57:59.634Z,46.08
2022-11-30T22:00:30.080Z,45.51
2022-11-30T22:03:00.231Z,45.92
2022-11-30T22:05:30.367Z,45.87
2022-11-30T22:08:00.791Z,46.22
2022-11-30T22:10:32.805Z,45.67
2022-11-30T22:13:02.313Z,45.90
2022-11-30T22:15:32.334Z,45.87
2022-11-30T22:18:02.357Z,45.98
2022-11-30T22:20:32.826Z,45.92
2022-11-30T22:23:03.845Z,45.90
2022-11-30T22:25:36.412Z,45.67
2022-11-30T22:28:07.218Z,46.04
2022-11-30T22:30:44.673Z,45.89
2022-11-30T22:33:14.639Z,45.88
2022-11-30T22:35:44.709Z,45.67
2022-11-30T22:38:16.791Z,45.69
2022-11-30T22:40:49.399Z,45.65
2022-11-30T22:43:19.229Z,45.56
2022-11-30T22:45:49.787Z,45.82
2022-11-30T22:48:20.435Z,45.89
2022-11-30T22:50:50.688Z,46.07
2022-11-30T22:53:20.792Z,46.12
2022-11-30T22:55:52.802Z,46.06
2022-11-30T22:58:23.353Z,45.96
2022-11-30T23:01:06.832Z,45.83
2022-11-30T23:03:37.140Z,45.73
2022-11-30T23:06:08.323Z,45.74
2022-11-30T23:08:39.989Z,45.73
2022-11-30T23:11:14.571Z,45.75
2022-11-30T23:13:46.449Z,45.98
2022-11-30T23:16:17.620Z,45.63
2022-11-30T23:18:50.944Z,45.74
2022-11-30T23:21:25.314Z,45.69
2022-11-30T23:23:56.851Z,45.84
2022-11-30T23:26:31.899Z,46.13
2022-11-30T23:29:05.731Z,46.03
2022-11-30T23:31:40.481Z,45.61
2022-11-30T23:34:20.249Z,45.82
2022-11-30T23:36:51.641Z,45.91
2022-11-30T23:39:23.770Z,45.93
2022-11-30T23:41:56.112Z,45.92
2022-11-30T23:44:26.388Z,46.01
2022-11-30T23:46:56.945Z,46.12
2022-11-30T23:49:28.027Z,46.06
2022-11-30T23:51:58.938Z,45.88
2022-11-30T23:54:28.982Z,45.61
2022-11-30T23:57:01.748Z,45.85
2022-11-30T23:59:32.226Z,45.84
